EDSB/FKB METAR and TAF weather

Enter ICAO airport designator
Station Type Date Time Source
EDSB METAR 2020/02/26 09:20 UTC NOAA

EDSB 260920Z 23009KT 210V270 8000 -RA VCSH SCT010 BKN025 OVC035 03/01 Q1002 RESHSN


Station Type Date Time Source
EDSB Decoded METAR 2020/02/26 09:20 UTC NOAA

Karlsruhe, Baden Wurttemberg, Germany (EDSB) 48-46-43N 008-04-47E
Feb 26, 2020 - 04:20 AM EST / 2020.02.26 0920 UTC
Wind: from the SW (230 degrees) at 10 MPH (9 KT) (direction variable):0
Visibility: 4 mile(s):0
Sky conditions: overcast
Weather: light rain; showers in the vicinity
Temperature: 37 F (3 C)
Dew Point: 33 F (1 C)
Relative Humidity: 86%
Pressure (altimeter): 29.59 in. Hg (1002 hPa)
ob: EDSB 260920Z 23009KT 210V270 8000 -RA VCSH SCT010 BKN025 OVC035 03/01 Q1002 RESHSN
cycle: 9

Station Type Date Time Source
EDSB TAF 2020/02/26 06:27 UTC NOAA

TAF EDSB 260500Z 2606/2706 23012KT 9999 SCT030
TEMPO 2606/2620 27015G30KT 2500 SHSNRA BKN014CB

Example: see airport list